Time;durP1;ratioP1;P1;durP2;ratioP2;P2;SDS_P1;SDS_P2;PMS_P1;PMS_P2;Temp;Humidity;BMP_temperature;BMP_pressure;BME280_temperature;BME280_humidity;BME280_pressure;Samples;Min_cycle;Max_cycle;Signal;HPM_P1;HPM_P2
2021/06/20 00:00:52;;;;;;;7.57;5.63;;;589.40;2432.00;;;;;;4914985;29;20716;-74
2021/06/20 00:03:18;;;;;;;6.95;4.50;;;589.50;2432.00;;;;;;4914529;29;20024;-73
2021/06/20 00:06:28;;;;;;;9.40;5.32;;;589.40;2432.00;;;;;;4911647;29;20124;-73
2021/06/20 00:08:55;;;;;;;8.15;4.68;;;589.40;2432.00;;;;;;4855941;29;20065;-74
2021/06/20 00:11:24;;;;;;;10.65;4.85;;;589.30;2432.00;;;;;;4859304;29;20131;-73
2021/06/20 00:13:49;;;;;;;7.25;4.35;;;589.30;2432.00;;;;;;4859189;29;20109;-73
2021/06/20 00:16:15;;;;;;;6.05;4.07;;;589.30;2432.00;;;;;;4859467;29;20518;-73
2021/06/20 00:18:42;;;;;;;6.80;4.45;;;589.30;2432.00;;;;;;4859575;29;20033;-74
2021/06/20 00:21:07;;;;;;;7.75;4.72;;;589.30;2432.00;;;;;;4872867;29;20045;-73
2021/06/20 00:23:34;;;;;;;8.93;4.35;;;589.30;2432.00;;;;;;4872457;29;20048;-74
2021/06/20 00:25:59;;;;;;;5.55;4.10;;;589.30;2432.00;;;;;;4859425;29;20113;-73
2021/06/20 00:28:25;;;;;;;6.13;4.88;;;589.30;2432.00;;;;;;4843711;29;20502;-74
2021/06/20 00:30:51;;;;;;;6.53;4.55;;;589.30;2432.00;;;;;;4859451;29;20442;-73
2021/06/20 00:33:17;;;;;;;5.30;4.63;;;589.40;2432.00;;;;;;4859540;29;20124;-73
2021/06/20 00:35:43;;;;;;;6.00;4.50;;;589.30;2432.00;;;;;;4859477;29;20487;-74
2021/06/20 00:38:09;;;;;;;6.68;4.07;;;589.30;2432.00;;;;;;4859376;29;20057;-73
2021/06/20 00:40:34;;;;;;;11.00;4.70;;;589.30;2432.00;;;;;;4859271;29;20063;-73
2021/06/20 00:43:00;;;;;;;9.52;5.38;;;589.30;2432.00;;;;;;4851673;29;20046;-74
2021/06/20 00:45:26;;;;;;;9.93;6.30;;;589.30;2432.00;;;;;;4877204;29;20037;-73
2021/06/20 00:47:56;;;;;;;7.72;5.22;;;589.30;2432.00;;;;;;4899202;29;20115;-73
2021/06/20 00:50:23;;;;;;;7.55;4.85;;;589.30;2432.00;;;;;;4900495;29;20053;-73
2021/06/20 00:52:49;;;;;;;7.38;5.32;;;589.20;2432.00;;;;;;4918153;29;20016;-73
2021/06/20 00:55:15;;;;;;;7.70;5.63;;;589.20;2432.00;;;;;;4904020;29;20039;-73
2021/06/20 00:57:41;;;;;;;7.53;5.00;;;589.20;2432.00;;;;;;4906952;29;20025;-73
2021/06/20 01:00:09;;;;;;;8.20;5.00;;;589.20;2432.00;;;;;;4910434;29;20107;-73
2021/06/20 01:02:36;;;;;;;8.70;5.18;;;589.10;2432.00;;;;;;4899261;29;20052;-73
2021/06/20 01:05:06;;;;;;;10.82;5.72;;;589.10;2432.00;;;;;;4907474;29;20028;-73
2021/06/20 01:07:32;;;;;;;9.07;5.22;;;589.10;2432.00;;;;;;4900257;29;20401;-73
2021/06/20 01:09:57;;;;;;;7.90;4.95;;;589.00;2432.00;;;;;;4898574;29;20490;-73
2021/06/20 01:12:24;;;;;;;8.48;5.15;;;589.00;2432.00;;;;;;4893037;29;20048;-73
2021/06/20 01:14:50;;;;;;;6.80;4.82;;;563.90;2432.00;;;;;;4910008;29;20024;-73
2021/06/20 01:17:17;;;;;;;6.15;4.47;;;588.90;2432.00;;;;;;4890775;29;20401;-73
2021/06/20 01:19:43;;;;;;;7.78;5.07;;;588.90;2432.00;;;;;;4897516;29;20125;-72
2021/06/20 01:22:26;;;;;;;8.10;5.28;;;588.90;2432.00;;;;;;4897966;29;20056;-73
2021/06/20 01:25:01;;;;;;;7.88;4.85;;;588.80;2432.00;;;;;;4901244;29;20024;-73
2021/06/20 01:27:36;;;;;;;5.35;4.47;;;588.80;2432.00;;;;;;4904117;29;20052;-73
2021/06/20 01:30:04;;;;;;;6.13;4.83;;;588.80;2432.00;;;;;;4898138;29;20028;-73
2021/06/20 01:32:30;;;;;;;9.30;5.53;;;588.80;2432.00;;;;;;4892029;29;20259;-72
2021/06/20 01:34:58;;;;;;;6.82;4.70;;;564.10;2432.00;;;;;;4902617;29;20063;-73
2021/06/20 01:37:24;;;;;;;7.50;4.75;;;564.10;2432.00;;;;;;4905555;29;20052;-74
2021/06/20 01:39:51;;;;;;;6.78;4.50;;;564.00;2432.00;;;;;;4894820;29;20065;-73
2021/06/20 01:42:17;;;;;;;6.85;4.60;;;564.00;2432.00;;;;;;4906561;29;20083;-74
2021/06/20 01:44:45;;;;;;;9.70;4.57;;;564.00;2432.00;;;;;;4901949;29;20036;-73
2021/06/20 01:47:10;;;;;;;7.15;4.63;;;563.90;2432.00;;;;;;4900906;29;20385;-73
2021/06/20 01:49:36;;;;;;;6.60;4.78;;;563.90;2432.00;;;;;;4906687;29;20033;-73
2021/06/20 01:52:02;;;;;;;6.45;4.40;;;563.90;2432.00;;;;;;4897518;29;20044;-73
2021/06/20 01:54:29;;;;;;;5.88;4.80;;;563.90;2432.00;;;;;;4897327;29;20029;-73
2021/06/20 01:56:55;;;;;;;6.45;4.63;;;563.90;2432.00;;;;;;4911170;29;20090;-73
2021/06/20 01:59:21;;;;;;;12.82;4.72;;;563.90;2432.00;;;;;;4897364;29;20032;-74
2021/06/20 02:01:46;;;;;;;6.97;4.38;;;563.90;2432.00;;;;;;4897573;29;20033;-73
2021/06/20 02:04:12;;;;;;;6.90;4.35;;;563.80;2432.00;;;;;;4906441;29;20103;-73
2021/06/20 02:06:38;;;;;;;6.05;4.57;;;563.80;2432.00;;;;;;4906834;29;20036;-74
2021/06/20 02:09:04;;;;;;;5.43;3.60;;;563.80;2432.00;;;;;;4898880;29;20032;-73
2021/06/20 02:11:31;;;;;;;4.25;3.60;;;563.70;2432.00;;;;;;4908176;29;20117;-73
2021/06/20 02:13:58;;;;;;;5.13;3.60;;;563.80;2432.00;;;;;;4896765;29;20017;-73
2021/06/20 02:16:24;;;;;;;5.70;3.50;;;563.70;2432.00;;;;;;4897065;29;20509;-73
2021/06/20 02:18:50;;;;;;;6.85;3.90;;;563.70;2432.00;;;;;;4897325;29;20151;-73
2021/06/20 02:21:16;;;;;;;8.75;3.45;;;563.70;2432.00;;;;;;4896666;29;20036;-73
2021/06/20 02:23:42;;;;;;;6.65;4.07;;;563.70;2432.00;;;;;;4897081;29;20042;-73
2021/06/20 02:26:07;;;;;;;6.20;3.47;;;563.70;2432.00;;;;;;4901567;29;20760;-73
2021/06/20 02:28:33;;;;;;;5.93;3.38;;;563.60;2432.00;;;;;;4895811;29;20035;-73
2021/06/20 02:30:59;;;;;;;5.00;3.42;;;563.60;2432.00;;;;;;4896599;29;20028;-73
2021/06/20 02:33:25;;;;;;;5.93;3.78;;;563.60;2432.00;;;;;;4896566;29;20135;-73
2021/06/20 02:35:50;;;;;;;6.68;4.00;;;563.60;2432.00;;;;;;4896742;29;20031;-73
2021/06/20 02:38:16;;;;;;;9.02;3.95;;;563.60;2432.00;;;;;;4896695;29;20414;-73
2021/06/20 02:40:42;;;;;;;8.35;3.80;;;563.50;2432.00;;;;;;4906126;29;20371;-73
2021/06/20 02:43:08;;;;;;;6.05;3.88;;;563.50;2432.00;;;;;;4890777;29;20048;-73
2021/06/20 02:45:33;;;;;;;11.43;3.65;;;563.50;2432.00;;;;;;4896959;29;20028;-73
2021/06/20 02:47:59;;;;;;;5.10;3.60;;;563.50;2432.00;;;;;;4896373;29;20047;-73
2021/06/20 02:50:25;;;;;;;7.55;3.72;;;563.50;2432.00;;;;;;4897041;29;20028;-74
2021/06/20 02:52:50;;;;;;;9.52;3.40;;;563.50;2432.00;;;;;;4893692;29;20115;-73
2021/06/20 02:55:16;;;;;;;4.88;3.28;;;563.50;2432.00;;;;;;4889605;29;20073;-73
2021/06/20 02:57:42;;;;;;;9.85;4.10;;;563.40;2432.00;;;;;;4894831;29;20084;-73
2021/06/20 03:00:09;;;;;;;7.90;3.08;;;563.30;2432.00;;;;;;4896706;29;20426;-74
2021/06/20 03:02:35;;;;;;;7.15;4.00;;;563.30;2432.00;;;;;;4903801;29;20099;-73
2021/06/20 03:05:02;;;;;;;7.82;3.40;;;563.30;2432.00;;;;;;4900975;29;20486;-73
2021/06/20 03:07:28;;;;;;;7.97;3.70;;;563.30;2432.00;;;;;;4890532;29;20073;-73
2021/06/20 03:09:54;;;;;;;7.35;3.63;;;563.50;2432.00;;;;;;4886175;29;20454;-73
2021/06/20 03:12:20;;;;;;;6.15;3.45;;;563.40;2432.00;;;;;;4889700;29;20669;-74
2021/06/20 03:14:47;;;;;;;4.57;3.03;;;563.40;2432.00;;;;;;4907422;29;20036;-73
2021/06/20 03:17:14;;;;;;;5.05;3.40;;;563.50;2432.00;;;;;;4903970;29;20080;-73
2021/06/20 03:19:40;;;;;;;4.32;3.05;;;563.50;2432.00;;;;;;4896173;29;20521;-73
2021/06/20 03:22:07;;;;;;;4.25;2.70;;;563.50;2432.00;;;;;;4896490;29;20067;-73
2021/06/20 03:24:35;;;;;;;5.47;3.08;;;563.60;2432.00;;;;;;4895848;29;20056;-73
2021/06/20 03:27:01;;;;;;;4.93;3.03;;;563.60;2432.00;;;;;;4909030;29;20027;-74
2021/06/20 03:29:28;;;;;;;5.22;3.10;;;563.60;2432.00;;;;;;4889559;29;20033;-74
2021/06/20 03:31:54;;;;;;;6.10;3.05;;;563.60;2432.00;;;;;;4896251;29;20036;-74
2021/06/20 03:34:20;;;;;;;3.90;2.60;;;563.70;2432.00;;;;;;4888595;29;20040;-74
2021/06/20 03:36:46;;;;;;;4.65;3.28;;;563.70;2432.00;;;;;;4894051;29;20545;-74
2021/06/20 03:39:12;;;;;;;5.45;3.38;;;563.80;2432.00;;;;;;4898235;29;20071;-74
2021/06/20 03:41:39;;;;;;;11.93;3.53;;;563.80;2432.00;;;;;;4901159;29;20025;-73
2021/06/20 03:44:09;;;;;;;5.22;3.75;;;563.90;2432.00;;;;;;4895805;29;20068;-73
2021/06/20 03:46:35;;;;;;;6.70;3.53;;;563.90;2432.00;;;;;;4905608;29;20028;-74
2021/06/20 03:49:01;;;;;;;7.22;3.50;;;563.90;2432.00;;;;;;4899380;29;20482;-74
2021/06/20 03:51:27;;;;;;;3.42;2.70;;;564.10;2432.00;;;;;;4908689;29;20047;-73
2021/06/20 03:53:53;;;;;;;8.68;3.20;;;564.10;2432.00;;;;;;4899067;29;20469;-73
2021/06/20 03:56:19;;;;;;;6.63;3.78;;;588.80;2432.00;;;;;;4899813;29;20088;-74
2021/06/20 03:58:44;;;;;;;8.10;3.50;;;588.80;2432.00;;;;;;4916809;29;20036;-73
2021/06/20 04:01:10;;;;;;;7.57;3.22;;;588.80;2432.00;;;;;;4911755;29;20025;-73
2021/06/20 04:03:36;;;;;;;6.43;3.55;;;588.80;2432.00;;;;;;4899112;29;20045;-73
2021/06/20 04:06:02;;;;;;;13.98;4.30;;;589.00;2432.00;;;;;;4911457;29;20032;-73
2021/06/20 04:08:28;;;;;;;14.18;3.83;;;589.10;2432.00;;;;;;4908102;29;20043;-73
2021/06/20 04:10:54;;;;;;;6.57;3.33;;;589.20;2432.00;;;;;;4901897;29;20478;-73
2021/06/20 04:13:20;;;;;;;4.50;2.42;;;589.20;2432.00;;;;;;4898833;29;20549;-73
2021/06/20 04:15:46;;;;;;;5.78;2.70;;;589.30;2432.00;;;;;;4899238;29;20025;-73
2021/06/20 04:18:12;;;;;;;4.38;2.20;;;589.40;2432.00;;;;;;4898815;29;20055;-73
2021/06/20 04:20:38;;;;;;;2.85;2.25;;;589.50;2432.00;;;;;;4896134;29;20479;-73
2021/06/20 04:23:04;;;;;;;3.40;1.90;;;589.60;2432.00;;;;;;4881637;29;20036;-73
2021/06/20 04:25:30;;;;;;;2.72;1.73;;;589.50;2432.00;;;;;;4886825;29;20478;-73
2021/06/20 04:27:55;;;;;;;5.78;2.15;;;589.50;2432.00;;;;;;4896891;29;20044;-73
2021/06/20 04:30:23;;;;;;;3.22;2.03;;;589.60;2432.00;;;;;;4898608;29;20152;-73
2021/06/20 04:32:50;;;;;;;5.40;1.85;;;614.40;2432.00;;;;;;4893396;29;20107;-73
2021/06/20 04:35:17;;;;;;;8.68;2.97;;;614.40;2432.00;;;;;;4898650;29;20728;-73
2021/06/20 04:37:43;;;;;;;4.68;1.98;;;614.70;2432.00;;;;;;4887227;29;20746;-73
2021/06/20 04:40:13;;;;;;;2.58;1.77;;;614.80;2432.00;;;;;;4883353;29;20436;-73
2021/06/20 04:42:41;;;;;;;3.28;2.00;;;614.90;2432.00;;;;;;4891494;29;20029;-73
2021/06/20 04:45:08;;;;;;;3.17;1.98;;;614.90;2432.00;;;;;;4896922;29;20028;-73
2021/06/20 04:47:35;;;;;;;3.58;2.00;;;615.00;2432.00;;;;;;4893671;29;20020;-74
2021/06/20 04:50:01;;;;;;;3.17;2.10;;;615.10;2432.00;;;;;;4897766;29;20033;-73
2021/06/20 04:52:27;;;;;;;2.83;2.20;;;615.20;2432.00;;;;;;4898394;29;20060;-75
2021/06/20 04:54:54;;;;;;;3.67;1.90;;;640.00;2432.00;;;;;;4887800;29;20044;-74
2021/06/20 04:57:24;;;;;;;3.72;2.05;;;640.20;2432.00;;;;;;4898003;29;20016;-74
2021/06/20 04:59:51;;;;;;;8.60;2.67;;;640.20;2432.00;;;;;;4897859;29;20032;-74
2021/06/20 05:02:18;;;;;;;6.50;1.92;;;640.20;2406.40;;;;;;4884534;29;20427;-74
2021/06/20 05:04:43;;;;;;;4.60;1.92;;;640.50;2406.40;;;;;;4887602;29;20028;-74
2021/06/20 05:07:10;;;;;;;4.75;2.35;;;640.60;2380.80;;;;;;4889555;29;20100;-74
2021/06/20 05:09:40;;;;;;;3.95;2.25;;;640.70;2380.80;;;;;;4888209;29;20060;-74
2021/06/20 05:12:07;;;;;;;4.25;2.75;;;640.70;2355.20;;;;;;4893239;29;20048;-74
2021/06/20 05:14:34;;;;;;;2.55;1.80;;;665.60;2380.80;;;;;;4890583;29;20019;-74
2021/06/20 05:17:00;;;;;;;3.92;2.33;;;665.70;2380.80;;;;;;4893287;29;20024;-74
2021/06/20 05:19:26;;;;;;;4.30;2.47;;;665.70;2380.80;;;;;;4893335;29;20033;-74
2021/06/20 05:21:52;;;;;;;4.43;2.00;;;665.90;2355.20;;;;;;4890642;29;20378;-74
2021/06/20 05:24:18;;;;;;;5.35;1.70;;;665.80;2355.20;;;;;;4873543;29;20043;-74
2021/06/20 05:26:44;;;;;;;3.13;2.10;;;666.10;2355.20;;;;;;4886974;29;20044;-74
2021/06/20 05:29:10;;;;;;;4.53;2.30;;;666.10;2329.60;;;;;;4887972;29;20072;-74
2021/06/20 05:31:36;;;;;;;3.50;2.00;;;666.30;2329.60;;;;;;4888526;29;20103;-74
2021/06/20 05:34:02;;;;;;;4.05;2.70;;;666.40;2304.00;;;;;;4889391;29;20394;-74
2021/06/20 05:36:28;;;;;;;3.53;2.15;;;666.50;2304.00;;;;;;4882041;29;20413;-73
2021/06/20 05:38:53;;;;;;;4.20;2.28;;;691.40;2278.40;;;;;;4888631;29;20049;-74
2021/06/20 05:41:19;;;;;;;3.25;2.47;;;691.50;2278.40;;;;;;4890020;29;20033;-76
2021/06/20 05:43:45;;;;;;;5.15;2.58;;;691.70;2252.80;;;;;;4882642;29;20566;-75
2021/06/20 05:46:10;;;;;;;4.70;2.15;;;691.70;2252.80;;;;;;4886164;29;20442;-75
2021/06/20 05:48:36;;;;;;;4.38;2.80;;;691.80;2252.80;;;;;;4878206;29;20127;-75
2021/06/20 05:51:02;;;;;;;4.72;2.60;;;691.70;2252.80;;;;;;4888323;29;20033;-75
2021/06/20 05:53:28;;;;;;;3.67;2.75;;;691.80;2252.80;;;;;;4884421;29;20076;-75
2021/06/20 05:55:53;;;;;;;3.53;2.50;;;692.00;2227.20;;;;;;4897607;29;20382;-75
2021/06/20 05:58:19;;;;;;;8.75;2.45;;;716.80;2252.80;;;;;;4897625;29;20462;-74
2021/06/20 06:00:45;;;;;;;7.07;3.03;;;717.00;2227.20;;;;;;4880344;29;20044;-74
2021/06/20 06:03:11;;;;;;;4.53;2.63;;;717.30;2227.20;;;;;;4880883;29;20035;-76
2021/06/20 06:05:36;;;;;;;6.03;2.63;;;717.50;2176.00;;;;;;4890013;29;20036;-75
2021/06/20 06:08:03;;;;;;;5.13;2.67;;;717.50;2176.00;;;;;;4893545;29;20101;-75
2021/06/20 06:10:30;;;;;;;3.63;2.50;;;717.70;2176.00;;;;;;4884846;29;20529;-76
2021/06/20 06:12:57;;;;;;;4.15;2.95;;;742.40;2201.60;;;;;;4890962;29;20140;-75
2021/06/20 06:15:25;;;;;;;4.47;3.10;;;742.50;2176.00;;;;;;4895580;29;20047;-75
2021/06/20 06:17:51;;;;;;;3.83;3.08;;;742.70;2150.40;;;;;;4888179;29;20081;-74
2021/06/20 06:20:18;;;;;;;3.60;2.60;;;742.80;2150.40;;;;;;4893808;29;20052;-74
2021/06/20 06:22:44;;;;;;;5.95;2.75;;;742.90;2124.80;;;;;;4895915;29;20038;-74
2021/06/20 06:25:11;;;;;;;4.35;2.55;;;742.70;2176.00;;;;;;4889940;29;20853;-74
2021/06/20 06:27:38;;;;;;;4.30;2.60;;;742.90;2124.80;;;;;;4887977;29;20079;-74
2021/06/20 06:30:05;;;;;;;3.85;3.00;;;743.00;2150.40;;;;;;4890614;29;20037;-74
2021/06/20 06:32:31;;;;;;;4.65;2.00;;;743.20;2124.80;;;;;;4890579;29;20076;-74
2021/06/20 06:34:56;;;;;;;3.60;2.47;;;743.20;2124.80;;;;;;4892938;29;20103;-76
2021/06/20 06:37:22;;;;;;;6.20;2.80;;;768.10;2099.20;;;;;;4880876;29;20056;-79
2021/06/20 06:39:48;;;;;;;3.17;2.65;;;768.10;2099.20;;;;;;4892116;29;20032;-80
2021/06/20 06:42:14;;;;;;;5.18;2.78;;;768.10;2073.60;;;;;;4891451;29;20035;-76
2021/06/20 06:44:40;;;;;;;4.63;2.88;;;768.30;2048.00;;;;;;4896620;29;20386;-75
2021/06/20 06:47:06;;;;;;;3.72;2.33;;;768.30;2073.60;;;;;;4896812;29;20036;-76
2021/06/20 06:49:32;;;;;;;4.25;3.03;;;768.50;2048.00;;;;;;4894752;29;20508;-76
2021/06/20 06:51:58;;;;;;;4.20;2.67;;;768.70;2022.40;;;;;;4881269;29;20116;-76
2021/06/20 06:54:24;;;;;;;6.22;2.90;;;793.60;2022.40;;;;;;4896782;29;20100;-76
2021/06/20 06:56:50;;;;;;;3.10;2.40;;;793.80;2022.40;;;;;;4895789;29;20386;-75
2021/06/20 06:59:15;;;;;;;4.88;2.95;;;794.30;1971.20;;;;;;4884522;29;20497;-75
2021/06/20 07:01:42;;;;;;;4.43;3.03;;;794.50;1945.60;;;;;;4893965;29;20096;-75
2021/06/20 07:04:07;;;;;;;5.53;2.72;;;794.40;1945.60;;;;;;4881132;29;20139;-75
2021/06/20 07:06:33;;;;;;;5.15;2.83;;;819.20;1945.60;;;;;;4891074;29;20112;-78
2021/06/20 07:08:59;;;;;;;3.55;2.38;;;819.60;1920.00;;;;;;4879765;29;20393;-76
2021/06/20 07:11:25;;;;;;;3.67;2.80;;;819.20;1945.60;;;;;;4889044;29;20037;-76
2021/06/20 07:13:51;;;;;;;4.88;3.05;;;819.20;1920.00;;;;;;4892270;29;20112;-76
2021/06/20 07:16:16;;;;;;;6.93;3.00;;;819.70;1894.40;;;;;;4887731;29;20029;-76
2021/06/20 07:18:42;;;;;;;5.15;3.30;;;819.90;1868.80;;;;;;4886864;29;20648;-76
2021/06/20 07:21:08;;;;;;;6.53;3.30;;;820.10;1843.20;;;;;;4890091;29;20139;-76
2021/06/20 07:23:34;;;;;;;9.38;3.85;;;820.00;1894.40;;;;;;4898281;29;20033;-77
2021/06/20 07:26:00;;;;;;;8.15;3.40;;;819.50;1868.80;;;;;;4899298;29;20405;-77
2021/06/20 07:28:26;;;;;;;6.68;3.72;;;819.90;1868.80;;;;;;4882714;29;20528;-76
2021/06/20 07:30:52;;;;;;;7.10;3.42;;;819.60;1868.80;;;;;;4894587;29;20035;-76
2021/06/20 07:33:19;;;;;;;4.20;2.83;;;820.10;1817.60;;;;;;4892714;29;20036;-76
2021/06/20 07:35:51;;;;;;;5.90;3.08;;;844.90;1843.20;;;;;;4896043;29;20076;-76
2021/06/20 07:38:20;;;;;;;4.97;3.20;;;844.80;1817.60;;;;;;4899625;29;20055;-76
2021/06/20 07:40:47;;;;;;;5.05;2.97;;;845.20;1792.00;;;;;;4896445;29;20100;-77
2021/06/20 07:43:13;;;;;;;4.47;2.90;;;845.40;1792.00;;;;;;4900090;29;20092;-77
2021/06/20 07:45:39;;;;;;;4.55;3.92;;;845.10;1766.40;;;;;;4899799;29;20111;-77
2021/06/20 07:48:12;;;;;;;5.30;3.05;;;845.00;1792.00;;;;;;4891480;29;20029;-76
2021/06/20 07:50:38;;;;;;;4.57;3.40;;;845.40;1792.00;;;;;;4899047;29;20096;-75
2021/06/20 07:53:04;;;;;;;6.65;3.97;;;845.60;1792.00;;;;;;4893562;29;20099;-74
2021/06/20 07:55:29;;;;;;;3.58;2.78;;;845.50;1766.40;;;;;;4893931;29;20047;-74
2021/06/20 07:57:55;;;;;;;4.03;2.90;;;845.70;1766.40;;;;;;4894072;29;20654;-74
2021/06/20 08:00:21;;;;;;;4.20;3.10;;;870.80;1715.20;;;;;;4892715;29;20043;-75
2021/06/20 08:02:47;;;;;;;3.38;2.63;;;870.40;1715.20;;;;;;4897479;29;20025;-74
2021/06/20 08:05:15;;;;;;;4.43;3.00;;;870.80;1689.60;;;;;;4897918;29;20024;-74
2021/06/20 08:07:41;;;;;;;4.75;2.60;;;870.80;1689.60;;;;;;4898998;29;20504;-75
2021/06/20 08:10:07;;;;;;;4.53;3.00;;;871.10;1664.00;;;;;;4899099;29;20041;-74
2021/06/20 08:12:33;;;;;;;8.27;4.40;;;870.90;1664.00;;;;;;4898907;29;20029;-75
2021/06/20 08:14:59;;;;;;;5.22;3.00;;;871.10;1664.00;;;;;;4897493;29;20414;-75
2021/06/20 08:17:26;;;;;;;5.07;3.55;;;871.30;1638.40;;;;;;4899215;29;20375;-75
2021/06/20 08:19:52;;;;;;;6.20;4.10;;;896.10;1638.40;;;;;;4899354;29;20032;-75
2021/06/20 08:22:18;;;;;;;5.63;3.40;;;896.00;1638.40;;;;;;4898721;29;20111;-74
2021/06/20 08:24:45;;;;;;;5.03;3.20;;;896.50;1587.20;;;;;;4895311;29;20020;-74
2021/06/20 08:27:11;;;;;;;5.13;3.33;;;896.90;1561.60;;;;;;4888047;29;20033;-74
2021/06/20 08:29:37;;;;;;;4.32;3.65;;;921.60;1612.80;;;;;;4890428;29;20147;-75
2021/06/20 08:32:04;;;;;;;8.90;7.10;;;921.80;1587.20;;;;;;4898103;29;20028;-75
2021/06/20 08:34:31;;;;;;;6.45;5.75;;;922.00;1561.60;;;;;;4898731;29;20031;-74
2021/06/20 08:36:58;;;;;;;7.28;4.93;;;921.70;1536.00;;;;;;4895002;29;20100;-73
2021/06/20 08:39:24;;;;;;;3.47;2.78;;;896.80;1510.40;;;;;;4898270;29;20056;-74
2021/06/20 08:41:50;;;;;;;4.55;3.03;;;896.90;1536.00;;;;;;4885895;29;20107;-75
2021/06/20 08:44:25;;;;;;;7.85;3.47;;;896.90;1510.40;;;;;;4898142;29;20111;-75
2021/06/20 08:46:51;;;;;;;4.90;2.90;;;896.50;1510.40;;;;;;4886276;29;20450;-74
2021/06/20 08:49:17;;;;;;;4.45;2.42;;;896.50;1510.40;;;;;;4892559;29;20064;-74
2021/06/20 08:51:49;;;;;;;3.80;2.70;;;896.70;1510.40;;;;;;4898243;29;20414;-75
2021/06/20 08:54:15;;;;;;;5.70;2.55;;;921.80;1510.40;;;;;;4891271;29;20025;-74
2021/06/20 08:56:42;;;;;;;4.43;2.83;;;922.00;1510.40;;;;;;4889135;29;20031;-74
2021/06/20 08:59:10;;;;;;;4.28;2.90;;;922.10;1484.80;;;;;;4898266;29;20036;-74
2021/06/20 09:01:36;;;;;;;5.63;3.15;;;922.20;1459.20;;;;;;4895587;29;20040;-74
2021/06/20 09:04:03;;;;;;;3.30;2.50;;;922.10;1459.20;;;;;;4898854;29;20075;-74
2021/06/20 09:06:28;;;;;;;4.45;2.55;;;922.10;1459.20;;;;;;4895454;29;20107;-75
2021/06/20 09:08:56;;;;;;;3.20;2.60;;;922.40;1408.00;;;;;;4898145;29;20187;-75
2021/06/20 09:11:25;;;;;;;4.55;2.80;;;921.80;1459.20;;;;;;4898586;29;20063;-75
2021/06/20 09:14:02;;;;;;;3.45;2.85;;;921.70;1484.80;;;;;;4895024;29;20044;-75
2021/06/20 09:16:27;;;;;;;4.57;2.70;;;922.20;1459.20;;;;;;4898383;29;20029;-75
2021/06/20 09:18:53;;;;;;;3.33;2.67;;;922.40;1433.60;;;;;;4898101;29;20028;-76
2021/06/20 09:21:24;;;;;;;3.33;2.90;;;947.60;1408.00;;;;;;4897975;29;20029;-76
2021/06/20 09:23:51;;;;;;;4.85;2.67;;;947.50;1408.00;;;;;;4896129;29;20021;-76
2021/06/20 09:26:19;;;;;;;4.47;2.92;;;947.80;1356.80;;;;;;4891440;29;20036;-76
2021/06/20 09:28:48;;;;;;;5.53;3.08;;;948.00;1382.40;;;;;;4894275;29;20039;-76
2021/06/20 09:31:14;;;;;;;3.60;2.97;;;973.20;1356.80;;;;;;4893708;29;20040;-76
2021/06/20 09:33:40;;;;;;;3.95;2.90;;;973.50;1305.60;;;;;;4890616;29;20029;-76
2021/06/20 09:36:06;;;;;;;3.67;2.55;;;973.60;1305.60;;;;;;4876134;29;20402;-77
2021/06/20 09:38:34;;;;;;;4.78;2.78;;;998.40;1331.20;;;;;;4893444;29;20526;-77
2021/06/20 09:41:07;;;;;;;3.97;2.35;;;973.30;1305.60;;;;;;4897798;29;20053;-78
2021/06/20 09:43:34;;;;;;;4.43;2.60;;;973.10;1305.60;;;;;;4898242;29;20029;-77
2021/06/20 09:46:01;;;;;;;6.55;3.45;;;973.10;1305.60;;;;;;4891974;29;20032;-78
2021/06/20 09:48:33;;;;;;;3.35;2.78;;;973.10;1305.60;;;;;;4887961;29;20542;-77
2021/06/20 09:51:19;;;;;;;5.60;2.75;;;998.40;1280.00;;;;;;4898125;29;20021;-77
2021/06/20 09:53:47;;;;;;;4.70;2.95;;;998.60;1280.00;;;;;;4897588;29;20021;-77
2021/06/20 09:56:31;;;;;;;3.25;2.30;;;998.50;1280.00;;;;;;4890002;29;20678;-77
2021/06/20 09:59:05;;;;;;;3.42;2.67;;;;;;;;;;4896693;29;20037;-77
2021/06/20 10:01:35;;;;;;;4.53;2.80;;;999.00;1177.60;;;;;;4891180;29;20056;-78
2021/06/20 10:04:04;;;;;;;3.15;2.58;;;1024.10;1126.40;;;;;;4897796;29;20435;-77
2021/06/20 10:06:30;;;;;;;5.30;2.92;;;1024.00;1152.00;;;;;;4888084;29;20456;-77
2021/06/20 10:08:57;;;;;;;4.50;2.30;;;1024.00;1203.20;;;;;;4891520;29;20040;-77
2021/06/20 10:11:23;;;;;;;5.15;2.78;;;1024.50;1177.60;;;;;;4890758;29;20478;-77
2021/06/20 10:13:49;;;;;;;4.15;2.65;;;1024.70;1152.00;;;;;;4893703;29;20025;-76
2021/06/20 10:16:21;;;;;;;5.65;3.17;;;1024.50;1177.60;;;;;;4889628;29;20028;-75
2021/06/20 10:19:00;;;;;;;4.70;2.60;;;1024.50;1152.00;;;;;;4896401;29;20036;-75
2021/06/20 10:21:38;;;;;;;6.05;2.80;;;1024.90;1126.40;;;;;;4889947;29;20036;-74
2021/06/20 10:24:18;;;;;;;3.75;2.35;;;1049.60;1152.00;;;;;;4893713;29;20135;-74
2021/06/20 10:26:58;;;;;;;3.28;2.85;;;1024.60;1126.40;;;;;;4890281;29;20024;-75
2021/06/20 10:29:26;;;;;;;3.92;2.60;;;1024.90;1126.40;;;;;;4882169;29;20081;-75
2021/06/20 10:31:57;;;;;;;4.65;2.67;;;1024.30;1100.80;;;;;;4886407;29;20037;-74
2021/06/20 10:34:27;;;;;;;3.28;2.97;;;1024.70;1075.20;;;;;;4879238;29;20128;-75
2021/06/20 10:36:59;;;;;;;3.38;2.40;;;1049.60;1075.20;;;;;;4886197;29;20029;-77
2021/06/20 10:39:26;;;;;;;4.47;2.67;;;1024.20;1075.20;;;;;;4888345;29;20096;-76
2021/06/20 10:42:10;;;;;;;3.17;2.65;;;1024.00;1100.80;;;;;;4889728;29;20033;-75
2021/06/20 10:44:51;;;;;;;4.05;2.10;;;1024.00;1100.80;;;;;;4885262;29;20364;-74
2021/06/20 10:47:31;;;;;;;3.85;2.53;;;998.50;1126.40;;;;;;4889468;29;20041;-74
2021/06/20 10:50:09;;;;;;;3.10;2.40;;;999.30;1100.80;;;;;;4886398;29;20048;-74
2021/06/20 10:52:36;;;;;;;3.13;2.75;;;1024.50;1075.20;;;;;;4882021;29;20402;-74
2021/06/20 10:55:14;;;;;;;2.95;2.40;;;1024.50;1075.20;;;;;;4888525;29;20021;-74
2021/06/20 10:57:53;;;;;;;3.22;2.50;;;1024.00;1100.80;;;;;;4880356;29;20100;-74
2021/06/20 11:00:31;;;;;;;4.15;3.10;;;999.30;1126.40;;;;;;4886936;29;20039;-77
2021/06/20 11:03:27;;;;;;;3.72;2.72;;;973.60;1152.00;;;;;;4890526;29;20449;-77
2021/06/20 11:05:57;;;;;;;5.35;2.90;;;947.70;1177.60;;;;;;4836545;29;20061;-77
2021/06/20 11:08:28;;;;;;;4.65;2.75;;;947.50;1203.20;;;;;;4837231;29;20045;-77
2021/06/20 11:11:14;;;;;;;3.83;2.47;;;972.80;1203.20;;;;;;4826009;29;20493;-77
2021/06/20 11:13:43;;;;;;;4.22;2.50;;;947.80;1203.20;;;;;;4812570;29;20105;-77
2021/06/20 11:16:13;;;;;;;5.10;2.58;;;973.30;1177.60;;;;;;4824349;29;20086;-77
2021/06/20 11:18:39;;;;;;;3.45;2.75;;;998.60;1152.00;;;;;;4816203;29;20033;-77
2021/06/20 11:21:05;;;;;;;4.30;2.70;;;999.00;1126.40;;;;;;4825802;29;20034;-78
2021/06/20 11:23:31;;;;;;;4.25;2.95;;;1024.00;1100.80;;;;;;4829936;29;20050;-78
2021/06/20 11:26:02;;;;;;;3.42;2.03;;;1024.40;1100.80;;;;;;4821984;29;20041;-77
2021/06/20 11:28:29;;;;;;;2.83;2.08;;;1024.60;1100.80;;;;;;4822712;29;20118;-77
2021/06/20 11:31:09;;;;;;;2.53;2.13;;;1024.20;1075.20;;;;;;4827507;29;20035;-78
2021/06/20 11:33:35;;;;;;;3.92;2.83;;;1024.40;1075.20;;;;;;4841785;29;20034;-78
2021/06/20 11:36:01;;;;;;;4.10;2.35;;;1049.80;1075.20;;;;;;4826444;29;20408;-78
2021/06/20 11:38:40;;;;;;;2.90;2.50;;;1075.20;1024.00;;;;;;4827569;29;20419;-78
2021/06/20 11:41:13;;;;;;;4.10;2.47;;;1049.90;1075.20;;;;;;4838111;29;20495;-75
2021/06/20 11:43:51;;;;;;;5.20;3.22;;;1050.40;1049.60;;;;;;4884590;29;20032;-75
2021/06/20 11:46:21;;;;;;;5.45;3.60;;;1050.50;1049.60;;;;;;4886581;29;20033;-75
2021/06/20 11:49:07;;;;;;;4.63;2.80;;;1075.20;1049.60;;;;;;4883777;29;20031;-76
2021/06/20 11:51:42;;;;;;;3.45;2.22;;;1049.90;1075.20;;;;;;4887021;29;20454;-74
2021/06/20 11:54:12;;;;;;;4.47;2.70;;;1024.00;1100.80;;;;;;4883682;29;20076;-74
2021/06/20 11:56:39;;;;;;;3.90;2.50;;;1024.50;1075.20;;;;;;4884260;29;20459;-74
2021/06/20 11:59:06;;;;;;;3.42;2.60;;;1049.60;1075.20;;;;;;4892904;29;20075;-75
2021/06/20 12:01:47;;;;;;;4.63;2.40;;;1049.70;1049.60;;;;;;4879742;29;20034;-75
2021/06/20 12:04:15;;;;;;;4.68;3.13;;;1075.20;1049.60;;;;;;4879244;29;20025;-75
2021/06/20 12:06:41;;;;;;;3.47;2.60;;;1075.70;998.40;;;;;;4888505;29;20439;-73
2021/06/20 12:09:09;;;;;;;2.80;2.50;;;1075.50;1024.00;;;;;;4889427;29;20156;-72
2021/06/20 12:11:36;;;;;;;4.50;2.67;;;1075.30;1024.00;;;;;;4891840;29;20087;-73
2021/06/20 12:14:04;;;;;;;3.42;2.42;;;1075.70;998.40;;;;;;4891091;29;20756;-74
2021/06/20 12:16:30;;;;;;;4.45;2.47;;;1050.50;1024.00;;;;;;4889627;29;20091;-74
2021/06/20 12:18:59;;;;;;;2.85;2.30;;;1075.30;1024.00;;;;;;4894727;29;20490;-72